sensor_id;sensor_type;location;lat;lon;timestamp;temperature;humidity
24085;DHT22;12268;52.110;5.548;2023-07-20T00:01:11;20.90;99.90
24085;DHT22;12268;52.110;5.548;2023-07-20T00:03:37;20.90;99.90
24085;DHT22;12268;52.110;5.548;2023-07-20T00:06:02;21.00;99.90
24085;DHT22;12268;52.110;5.548;2023-07-20T00:08:30;21.00;99.90
24085;DHT22;12268;52.110;5.548;2023-07-20T00:10:55;20.90;99.90
24085;DHT22;12268;52.110;5.548;2023-07-20T00:13:21;21.00;99.90
24085;DHT22;12268;52.110;5.548;2023-07-20T00:15:47;20.90;99.90
24085;DHT22;12268;52.110;5.548;2023-07-20T00:18:13;20.90;99.90
24085;DHT22;12268;52.110;5.548;2023-07-20T00:20:39;20.80;99.90
24085;DHT22;12268;52.110;5.548;2023-07-20T00:25:40;20.90;99.90
24085;DHT22;12268;52.110;5.548;2023-07-20T00:28:05;20.90;99.90
24085;DHT22;12268;52.110;5.548;2023-07-20T00:30:31;20.80;99.90
24085;DHT22;12268;52.110;5.548;2023-07-20T00:32:56;20.80;99.90
24085;DHT22;12268;52.110;5.548;2023-07-20T00:35:22;20.80;99.90
24085;DHT22;12268;52.110;5.548;2023-07-20T00:37:47;20.70;99.90
24085;DHT22;12268;52.110;5.548;2023-07-20T00:40:13;20.60;99.90
24085;DHT22;12268;52.110;5.548;2023-07-20T00:42:38;20.60;99.90
24085;DHT22;12268;52.110;5.548;2023-07-20T00:55:26;20.30;99.90
24085;DHT22;12268;52.110;5.548;2023-07-20T00:57:52;20.20;99.90
24085;DHT22;12268;52.110;5.548;2023-07-20T01:00:18;20.10;99.90
24085;DHT22;12268;52.110;5.548;2023-07-20T01:02:44;20.10;99.90
24085;DHT22;12268;52.110;5.548;2023-07-20T01:05:10;19.90;99.90
24085;DHT22;12268;52.110;5.548;2023-07-20T01:07:55;19.80;99.90
24085;DHT22;12268;52.110;5.548;2023-07-20T01:10:42;19.70;99.90
24085;DHT22;12268;52.110;5.548;2023-07-20T01:13:10;19.60;99.90
24085;DHT22;12268;52.110;5.548;2023-07-20T01:15:36;19.60;99.90
24085;DHT22;12268;52.110;5.548;2023-07-20T01:18:01;19.60;99.90
24085;DHT22;12268;52.110;5.548;2023-07-20T01:20:30;19.60;99.90
24085;DHT22;12268;52.110;5.548;2023-07-20T01:23:22;19.60;99.90
24085;DHT22;12268;52.110;5.548;2023-07-20T01:29:22;19.40;99.90
24085;DHT22;12268;52.110;5.548;2023-07-20T01:31:54;19.40;99.90
24085;DHT22;12268;52.110;5.548;2023-07-20T01:34:22;19.50;99.90
24085;DHT22;12268;52.110;5.548;2023-07-20T01:36:50;19.40;99.90
24085;DHT22;12268;52.110;5.548;2023-07-20T01:39:18;19.30;99.90
24085;DHT22;12268;52.110;5.548;2023-07-20T01:41:45;19.40;99.90
24085;DHT22;12268;52.110;5.548;2023-07-20T01:44:11;19.30;99.90
24085;DHT22;12268;52.110;5.548;2023-07-20T01:46:37;19.30;99.90
24085;DHT22;12268;52.110;5.548;2023-07-20T01:49:03;19.10;99.90
24085;DHT22;12268;52.110;5.548;2023-07-20T01:51:29;19.10;99.90
24085;DHT22;12268;52.110;5.548;2023-07-20T01:53:54;19.00;99.90
24085;DHT22;12268;52.110;5.548;2023-07-20T01:56:20;19.00;99.90
24085;DHT22;12268;52.110;5.548;2023-07-20T01:58:45;18.90;99.90
24085;DHT22;12268;52.110;5.548;2023-07-20T02:01:11;18.90;99.90
24085;DHT22;12268;52.110;5.548;2023-07-20T02:03:36;18.90;99.90
24085;DHT22;12268;52.110;5.548;2023-07-20T02:06:02;18.80;99.90
24085;DHT22;12268;52.110;5.548;2023-07-20T02:08:28;18.80;99.90
24085;DHT22;12268;52.110;5.548;2023-07-20T02:10:53;18.80;99.90
24085;DHT22;12268;52.110;5.548;2023-07-20T02:13:19;18.80;99.90
24085;DHT22;12268;52.110;5.548;2023-07-20T02:15:44;18.90;99.90
24085;DHT22;12268;52.110;5.548;2023-07-20T02:18:10;18.90;99.90
24085;DHT22;12268;52.110;5.548;2023-07-20T02:20:36;19.00;99.90
24085;DHT22;12268;52.110;5.548;2023-07-20T02:23:01;18.90;99.90
24085;DHT22;12268;52.110;5.548;2023-07-20T02:25:27;18.90;99.90
24085;DHT22;12268;52.110;5.548;2023-07-20T02:27:53;18.70;99.90
24085;DHT22;12268;52.110;5.548;2023-07-20T02:30:18;18.70;99.90
24085;DHT22;12268;52.110;5.548;2023-07-20T02:32:44;18.70;99.90
24085;DHT22;12268;52.110;5.548;2023-07-20T02:35:14;18.60;99.90
24085;DHT22;12268;52.110;5.548;2023-07-20T02:37:40;18.50;99.90
24085;DHT22;12268;52.110;5.548;2023-07-20T02:40:06;18.50;99.90
24085;DHT22;12268;52.110;5.548;2023-07-20T02:42:32;18.40;99.90
24085;DHT22;12268;52.110;5.548;2023-07-20T02:44:58;18.40;99.90
24085;DHT22;12268;52.110;5.548;2023-07-20T02:47:23;18.40;99.90
24085;DHT22;12268;52.110;5.548;2023-07-20T02:49:49;18.40;99.90
24085;DHT22;12268;52.110;5.548;2023-07-20T02:52:14;18.40;99.90
24085;DHT22;12268;52.110;5.548;2023-07-20T02:54:40;18.40;99.90
24085;DHT22;12268;52.110;5.548;2023-07-20T02:57:06;18.40;99.90
24085;DHT22;12268;52.110;5.548;2023-07-20T02:59:31;18.50;99.90
24085;DHT22;12268;52.110;5.548;2023-07-20T03:01:57;18.50;99.90
24085;DHT22;12268;52.110;5.548;2023-07-20T03:04:25;18.50;99.90
24085;DHT22;12268;52.110;5.548;2023-07-20T03:06:50;18.50;99.90
24085;DHT22;12268;52.110;5.548;2023-07-20T03:09:16;18.50;99.90
24085;DHT22;12268;52.110;5.548;2023-07-20T03:11:41;18.60;99.90
24085;DHT22;12268;52.110;5.548;2023-07-20T03:14:07;18.70;99.90
24085;DHT22;12268;52.110;5.548;2023-07-20T03:16:32;18.60;99.90
24085;DHT22;12268;52.110;5.548;2023-07-20T03:18:59;18.70;99.90
24085;DHT22;12268;52.110;5.548;2023-07-20T03:21:25;18.90;99.90
24085;DHT22;12268;52.110;5.548;2023-07-20T03:23:51;18.80;99.90
24085;DHT22;12268;52.110;5.548;2023-07-20T03:26:16;18.70;99.90
24085;DHT22;12268;52.110;5.548;2023-07-20T03:28:42;18.70;99.90
24085;DHT22;12268;52.110;5.548;2023-07-20T03:31:08;18.70;99.90
24085;DHT22;12268;52.110;5.548;2023-07-20T03:33:34;18.70;99.90
24085;DHT22;12268;52.110;5.548;2023-07-20T03:36:00;18.50;99.90
24085;DHT22;12268;52.110;5.548;2023-07-20T03:38:26;18.50;99.90
24085;DHT22;12268;52.110;5.548;2023-07-20T03:40:57;18.40;99.90
24085;DHT22;12268;52.110;5.548;2023-07-20T03:43:24;18.40;99.90
24085;DHT22;12268;52.110;5.548;2023-07-20T03:45:50;18.50;99.90
24085;DHT22;12268;52.110;5.548;2023-07-20T03:48:23;18.60;99.90
24085;DHT22;12268;52.110;5.548;2023-07-20T03:50:50;18.50;99.90
24085;DHT22;12268;52.110;5.548;2023-07-20T03:53:16;18.60;99.90
24085;DHT22;12268;52.110;5.548;2023-07-20T03:55:49;18.60;99.90
24085;DHT22;12268;52.110;5.548;2023-07-20T03:58:16;18.70;99.90
24085;DHT22;12268;52.110;5.548;2023-07-20T04:00:49;18.80;99.90
24085;DHT22;12268;52.110;5.548;2023-07-20T04:03:19;18.90;99.90
24085;DHT22;12268;52.110;5.548;2023-07-20T04:05:45;18.90;99.90
24085;DHT22;12268;52.110;5.548;2023-07-20T04:08:10;18.90;99.90
24085;DHT22;12268;52.110;5.548;2023-07-20T04:10:37;19.00;99.90
24085;DHT22;12268;52.110;5.548;2023-07-20T04:13:03;18.90;99.90
24085;DHT22;12268;52.110;5.548;2023-07-20T04:15:29;18.80;99.90
24085;DHT22;12268;52.110;5.548;2023-07-20T04:17:56;18.90;99.90
24085;DHT22;12268;52.110;5.548;2023-07-20T04:20:22;18.90;99.90
24085;DHT22;12268;52.110;5.548;2023-07-20T04:22:48;18.90;99.90
24085;DHT22;12268;52.110;5.548;2023-07-20T04:25:13;18.90;99.90
24085;DHT22;12268;52.110;5.548;2023-07-20T04:27:39;18.90;99.90
24085;DHT22;12268;52.110;5.548;2023-07-20T04:30:07;18.90;99.90
24085;DHT22;12268;52.110;5.548;2023-07-20T04:32:33;19.00;99.90
24085;DHT22;12268;52.110;5.548;2023-07-20T04:34:59;18.90;99.90
24085;DHT22;12268;52.110;5.548;2023-07-20T04:37:25;18.90;99.90
24085;DHT22;12268;52.110;5.548;2023-07-20T04:39:50;18.80;99.90
24085;DHT22;12268;52.110;5.548;2023-07-20T04:42:16;18.80;99.90
24085;DHT22;12268;52.110;5.548;2023-07-20T04:44:41;18.80;99.90
24085;DHT22;12268;52.110;5.548;2023-07-20T04:47:07;18.90;99.90
24085;DHT22;12268;52.110;5.548;2023-07-20T04:49:34;19.00;99.90
24085;DHT22;12268;52.110;5.548;2023-07-20T04:51:59;19.00;99.90
24085;DHT22;12268;52.110;5.548;2023-07-20T04:54:25;18.90;99.90
24085;DHT22;12268;52.110;5.548;2023-07-20T04:56:52;19.00;99.90
24085;DHT22;12268;52.110;5.548;2023-07-20T04:59:18;19.10;99.90
24085;DHT22;12268;52.110;5.548;2023-07-20T05:01:44;19.20;99.90
24085;DHT22;12268;52.110;5.548;2023-07-20T05:04:09;19.30;99.90
24085;DHT22;12268;52.110;5.548;2023-07-20T05:06:35;19.30;99.90
24085;DHT22;12268;52.110;5.548;2023-07-20T05:09:00;19.30;99.90
24085;DHT22;12268;52.110;5.548;2023-07-20T05:11:26;19.40;99.90
24085;DHT22;12268;52.110;5.548;2023-07-20T05:13:51;19.50;99.90
24085;DHT22;12268;52.110;5.548;2023-07-20T05:16:17;19.60;99.90
24085;DHT22;12268;52.110;5.548;2023-07-20T05:18:42;19.60;99.90
24085;DHT22;12268;52.110;5.548;2023-07-20T05:21:08;19.60;99.90
24085;DHT22;12268;52.110;5.548;2023-07-20T05:23:34;19.70;99.90
24085;DHT22;12268;52.110;5.548;2023-07-20T05:26:00;19.50;99.90
24085;DHT22;12268;52.110;5.548;2023-07-20T05:28:26;19.30;99.90
24085;DHT22;12268;52.110;5.548;2023-07-20T05:30:52;19.20;99.90
24085;DHT22;12268;52.110;5.548;2023-07-20T05:33:19;19.30;99.90
24085;DHT22;12268;52.110;5.548;2023-07-20T05:35:45;19.30;99.90
24085;DHT22;12268;52.110;5.548;2023-07-20T05:38:10;19.30;99.90
24085;DHT22;12268;52.110;5.548;2023-07-20T05:40:41;19.30;99.90
24085;DHT22;12268;52.110;5.548;2023-07-20T05:43:07;19.30;99.90
24085;DHT22;12268;52.110;5.548;2023-07-20T05:45:33;19.20;99.90
24085;DHT22;12268;52.110;5.548;2023-07-20T05:47:58;19.10;99.90
24085;DHT22;12268;52.110;5.548;2023-07-20T05:50:24;19.10;99.90
24085;DHT22;12268;52.110;5.548;2023-07-20T05:52:52;19.10;99.90
24085;DHT22;12268;52.110;5.548;2023-07-20T05:55:18;19.10;99.90
24085;DHT22;12268;52.110;5.548;2023-07-20T05:57:43;19.30;99.90
24085;DHT22;12268;52.110;5.548;2023-07-20T06:00:09;19.40;99.90
24085;DHT22;12268;52.110;5.548;2023-07-20T06:02:35;19.40;99.90
24085;DHT22;12268;52.110;5.548;2023-07-20T06:05:01;19.40;99.90
24085;DHT22;12268;52.110;5.548;2023-07-20T06:07:26;19.40;99.90
24085;DHT22;12268;52.110;5.548;2023-07-20T06:09:52;19.40;99.90
24085;DHT22;12268;52.110;5.548;2023-07-20T06:12:17;19.70;99.90
24085;DHT22;12268;52.110;5.548;2023-07-20T06:14:43;19.70;99.90
24085;DHT22;12268;52.110;5.548;2023-07-20T06:17:09;19.70;99.90
24085;DHT22;12268;52.110;5.548;2023-07-20T06:19:35;19.90;99.90
24085;DHT22;12268;52.110;5.548;2023-07-20T06:22:00;19.80;99.90
24085;DHT22;12268;52.110;5.548;2023-07-20T06:24:26;19.90;99.90
24085;DHT22;12268;52.110;5.548;2023-07-20T06:26:51;20.00;99.90
24085;DHT22;12268;52.110;5.548;2023-07-20T06:29:17;19.90;99.90
24085;DHT22;12268;52.110;5.548;2023-07-20T06:31:42;19.90;99.90
24085;DHT22;12268;52.110;5.548;2023-07-20T06:34:08;20.10;99.90
24085;DHT22;12268;52.110;5.548;2023-07-20T06:36:33;20.20;99.90
24085;DHT22;12268;52.110;5.548;2023-07-20T06:38:59;20.30;99.90
24085;DHT22;12268;52.110;5.548;2023-07-20T06:41:25;20.50;99.90
24085;DHT22;12268;52.110;5.548;2023-07-20T06:43:50;20.70;99.90
24085;DHT22;12268;52.110;5.548;2023-07-20T06:46:16;20.70;99.90
24085;DHT22;12268;52.110;5.548;2023-07-20T06:48:41;20.70;99.90
24085;DHT22;12268;52.110;5.548;2023-07-20T06:51:07;20.90;99.90
24085;DHT22;12268;52.110;5.548;2023-07-20T06:53:33;21.20;99.90
24085;DHT22;12268;52.110;5.548;2023-07-20T06:55:58;21.40;99.90
24085;DHT22;12268;52.110;5.548;2023-07-20T06:58:24;21.70;99.90
24085;DHT22;12268;52.110;5.548;2023-07-20T07:00:50;21.90;99.90
24085;DHT22;12268;52.110;5.548;2023-07-20T07:03:16;21.80;99.90
24085;DHT22;12268;52.110;5.548;2023-07-20T07:05:41;22.10;99.90
24085;DHT22;12268;52.110;5.548;2023-07-20T07:08:07;22.20;99.90
24085;DHT22;12268;52.110;5.548;2023-07-20T07:10:34;22.20;99.90
24085;DHT22;12268;52.110;5.548;2023-07-20T07:13:00;22.00;99.90
24085;DHT22;12268;52.110;5.548;2023-07-20T07:15:26;22.10;99.90
24085;DHT22;12268;52.110;5.548;2023-07-20T07:28:14;22.90;99.90
24085;DHT22;12268;52.110;5.548;2023-07-20T07:30:39;23.10;99.90
24085;DHT22;12268;52.110;5.548;2023-07-20T07:33:05;23.10;99.90
24085;DHT22;12268;52.110;5.548;2023-07-20T07:35:30;23.10;99.90
24085;DHT22;12268;52.110;5.548;2023-07-20T07:37:56;23.60;99.90
24085;DHT22;12268;52.110;5.548;2023-07-20T07:40:21;24.20;99.90
24085;DHT22;12268;52.110;5.548;2023-07-20T07:42:47;24.70;99.90
24085;DHT22;12268;52.110;5.548;2023-07-20T07:45:13;25.20;99.90
24085;DHT22;12268;52.110;5.548;2023-07-20T07:47:39;26.00;99.90
24085;DHT22;12268;52.110;5.548;2023-07-20T07:50:04;25.80;99.90
24085;DHT22;12268;52.110;5.548;2023-07-20T07:52:30;25.40;99.90
24085;DHT22;12268;52.110;5.548;2023-07-20T07:54:56;24.70;99.90
24085;DHT22;12268;52.110;5.548;2023-07-20T07:57:21;24.20;99.90
24085;DHT22;12268;52.110;5.548;2023-07-20T07:59:47;24.10;99.90
24085;DHT22;12268;52.110;5.548;2023-07-20T08:02:12;24.60;99.90
24085;DHT22;12268;52.110;5.548;2023-07-20T08:04:38;25.50;99.90
24085;DHT22;12268;52.110;5.548;2023-07-20T08:07:04;26.90;99.90
24085;DHT22;12268;52.110;5.548;2023-07-20T08:09:30;27.50;99.90
24085;DHT22;12268;52.110;5.548;2023-07-20T08:11:55;28.10;99.90
24085;DHT22;12268;52.110;5.548;2023-07-20T08:14:21;29.20;99.90
24085;DHT22;12268;52.110;5.548;2023-07-20T08:16:46;30.20;98.00
24085;DHT22;12268;52.110;5.548;2023-07-20T08:19:12;30.00;94.80
24085;DHT22;12268;52.110;5.548;2023-07-20T08:21:38;30.70;94.80
24085;DHT22;12268;52.110;5.548;2023-07-20T08:24:04;31.80;95.40
24085;DHT22;12268;52.110;5.548;2023-07-20T08:26:29;31.70;92.30
24085;DHT22;12268;52.110;5.548;2023-07-20T08:28:55;30.60;91.90
24085;DHT22;12268;52.110;5.548;2023-07-20T08:31:20;29.40;92.70
24085;DHT22;12268;52.110;5.548;2023-07-20T08:33:46;29.00;91.70
24085;DHT22;12268;52.110;5.548;2023-07-20T08:36:12;30.10;94.00
24085;DHT22;12268;52.110;5.548;2023-07-20T08:38:38;31.30;93.90
24085;DHT22;12268;52.110;5.548;2023-07-20T08:41:03;32.30;93.60
24085;DHT22;12268;52.110;5.548;2023-07-20T08:43:30;32.60;90.70
24085;DHT22;12268;52.110;5.548;2023-07-20T08:45:56;32.60;91.60
24085;DHT22;12268;52.110;5.548;2023-07-20T08:48:22;33.60;91.80
24085;DHT22;12268;52.110;5.548;2023-07-20T08:50:52;34.20;87.00
24085;DHT22;12268;52.110;5.548;2023-07-20T08:53:21;34.10;86.30
24085;DHT22;12268;52.110;5.548;2023-07-20T08:55:50;32.90;84.70
24085;DHT22;12268;52.110;5.548;2023-07-20T08:58:17;31.70;85.50
24085;DHT22;12268;52.110;5.548;2023-07-20T09:00:43;31.20;90.40
24085;DHT22;12268;52.110;5.548;2023-07-20T09:03:10;30.80;87.10
24085;DHT22;12268;52.110;5.548;2023-07-20T09:05:36;31.50;87.60
24085;DHT22;12268;52.110;5.548;2023-07-20T09:08:02;32.70;85.30
24085;DHT22;12268;52.110;5.548;2023-07-20T09:10:30;34.00;84.90
24085;DHT22;12268;52.110;5.548;2023-07-20T09:12:56;34.20;81.70
24085;DHT22;12268;52.110;5.548;2023-07-20T09:15:22;33.50;83.10
24085;DHT22;12268;52.110;5.548;2023-07-20T09:17:49;34.20;82.20
24085;DHT22;12268;52.110;5.548;2023-07-20T09:20:18;34.60;79.10
24085;DHT22;12268;52.110;5.548;2023-07-20T09:22:45;33.90;82.50
24085;DHT22;12268;52.110;5.548;2023-07-20T09:25:15;32.90;84.00
24085;DHT22;12268;52.110;5.548;2023-07-20T09:27:42;32.00;85.90
24085;DHT22;12268;52.110;5.548;2023-07-20T09:30:10;31.30;86.30
24085;DHT22;12268;52.110;5.548;2023-07-20T09:32:49;30.50;79.00
24085;DHT22;12268;52.110;5.548;2023-07-20T09:35:22;30.20;84.50
24085;DHT22;12268;52.110;5.548;2023-07-20T09:40:20;33.40;81.30
24085;DHT22;12268;52.110;5.548;2023-07-20T09:42:46;32.80;80.60
24085;DHT22;12268;52.110;5.548;2023-07-20T09:45:12;31.80;80.70
24085;DHT22;12268;52.110;5.548;2023-07-20T09:47:38;31.30;84.60
24085;DHT22;12268;52.110;5.548;2023-07-20T09:50:05;31.30;81.50
24085;DHT22;12268;52.110;5.548;2023-07-20T09:52:39;32.20;83.20
24085;DHT22;12268;52.110;5.548;2023-07-20T09:55:06;33.90;74.80
24085;DHT22;12268;52.110;5.548;2023-07-20T09:57:33;34.80;74.80
24085;DHT22;12268;52.110;5.548;2023-07-20T09:59:59;35.40;75.30
24085;DHT22;12268;52.110;5.548;2023-07-20T10:02:30;37.70;72.20
24085;DHT22;12268;52.110;5.548;2023-07-20T10:05:02;38.70;64.60
24085;DHT22;12268;52.110;5.548;2023-07-20T10:07:30;38.90;63.30
24085;DHT22;12268;52.110;5.548;2023-07-20T10:09:56;38.60;61.60
24085;DHT22;12268;52.110;5.548;2023-07-20T10:12:25;37.80;60.80
24085;DHT22;12268;52.110;5.548;2023-07-20T10:15:10;35.50;57.40
24085;DHT22;12268;52.110;5.548;2023-07-20T10:17:43;33.40;59.10
24085;DHT22;12268;52.110;5.548;2023-07-20T10:20:16;32.90;67.20
24085;DHT22;12268;52.110;5.548;2023-07-20T10:22:42;33.80;71.80
24085;DHT22;12268;52.110;5.548;2023-07-20T10:25:09;35.50;64.00
24085;DHT22;12268;52.110;5.548;2023-07-20T10:27:35;35.70;61.40
24085;DHT22;12268;52.110;5.548;2023-07-20T10:30:00;34.10;64.80
24085;DHT22;12268;52.110;5.548;2023-07-20T10:32:29;32.70;71.30
24085;DHT22;12268;52.110;5.548;2023-07-20T10:34:56;33.20;65.20
24085;DHT22;12268;52.110;5.548;2023-07-20T10:37:47;33.80;67.70
24085;DHT22;12268;52.110;5.548;2023-07-20T10:40:38;34.30;72.50
24085;DHT22;12268;52.110;5.548;2023-07-20T10:43:06;35.20;70.30
24085;DHT22;12268;52.110;5.548;2023-07-20T10:45:41;35.50;68.90
24085;DHT22;12268;52.110;5.548;2023-07-20T10:48:33;36.80;69.80
24085;DHT22;12268;52.110;5.548;2023-07-20T10:51:13;38.90;66.40
24085;DHT22;12268;52.110;5.548;2023-07-20T10:53:42;40.70;60.70
24085;DHT22;12268;52.110;5.548;2023-07-20T10:56:20;42.10;56.80
24085;DHT22;12268;52.110;5.548;2023-07-20T10:58:45;42.80;51.90
24085;DHT22;12268;52.110;5.548;2023-07-20T11:01:16;43.10;50.30
24085;DHT22;12268;52.110;5.548;2023-07-20T11:03:43;43.00;49.50
24085;DHT22;12268;52.110;5.548;2023-07-20T11:11:29;39.30;48.70
24085;DHT22;12268;52.110;5.548;2023-07-20T11:14:05;37.30;50.90
24085;DHT22;12268;52.110;5.548;2023-07-20T11:16:43;35.60;51.80
24085;DHT22;12268;52.110;5.548;2023-07-20T11:19:20;34.20;54.90
24085;DHT22;12268;52.110;5.548;2023-07-20T11:21:49;32.80;54.80
24085;DHT22;12268;52.110;5.548;2023-07-20T11:24:15;32.30;58.90
24085;DHT22;12268;52.110;5.548;2023-07-20T11:26:48;33.50;57.00
24085;DHT22;12268;52.110;5.548;2023-07-20T11:29:16;34.40;59.60
24085;DHT22;12268;52.110;5.548;2023-07-20T11:31:42;34.30;57.00
24085;DHT22;12268;52.110;5.548;2023-07-20T11:34:11;34.00;54.40
24085;DHT22;12268;52.110;5.548;2023-07-20T11:36:42;33.60;56.40
24085;DHT22;12268;52.110;5.548;2023-07-20T11:39:12;34.50;55.90
24085;DHT22;12268;52.110;5.548;2023-07-20T11:41:38;36.60;55.90
24085;DHT22;12268;52.110;5.548;2023-07-20T11:44:06;37.60;54.70
24085;DHT22;12268;52.110;5.548;2023-07-20T11:46:39;37.70;54.90
24085;DHT22;12268;52.110;5.548;2023-07-20T11:49:05;37.90;53.10
24085;DHT22;12268;52.110;5.548;2023-07-20T11:51:31;38.80;51.90
24085;DHT22;12268;52.110;5.548;2023-07-20T11:53:58;36.80;51.50
24085;DHT22;12268;52.110;5.548;2023-07-20T11:56:25;36.20;52.50
24085;DHT22;12268;52.110;5.548;2023-07-20T11:58:50;35.70;54.00
24085;DHT22;12268;52.110;5.548;2023-07-20T12:01:19;35.50;54.40
24085;DHT22;12268;52.110;5.548;2023-07-20T12:03:45;36.00;56.20
24085;DHT22;12268;52.110;5.548;2023-07-20T12:06:13;36.80;54.90
24085;DHT22;12268;52.110;5.548;2023-07-20T12:08:41;37.80;50.30
24085;DHT22;12268;52.110;5.548;2023-07-20T12:11:07;37.50;51.20
24085;DHT22;12268;52.110;5.548;2023-07-20T12:13:43;37.50;55.20
24085;DHT22;12268;52.110;5.548;2023-07-20T12:16:16;37.60;57.10
24085;DHT22;12268;52.110;5.548;2023-07-20T12:18:43;37.80;56.50
24085;DHT22;12268;52.110;5.548;2023-07-20T12:21:09;39.80;54.40
24085;DHT22;12268;52.110;5.548;2023-07-20T12:23:39;40.20;50.60
24085;DHT22;12268;52.110;5.548;2023-07-20T12:26:09;40.10;47.60
24085;DHT22;12268;52.110;5.548;2023-07-20T12:28:39;41.00;50.20
24085;DHT22;12268;52.110;5.548;2023-07-20T12:31:06;38.90;47.00
24085;DHT22;12268;52.110;5.548;2023-07-20T12:33:32;38.90;49.30
24085;DHT22;12268;52.110;5.548;2023-07-20T12:35:57;39.50;47.00
24085;DHT22;12268;52.110;5.548;2023-07-20T12:38:24;40.40;50.70
24085;DHT22;12268;52.110;5.548;2023-07-20T12:40:50;40.20;47.90
24085;DHT22;12268;52.110;5.548;2023-07-20T12:43:16;39.70;48.10
24085;DHT22;12268;52.110;5.548;2023-07-20T12:45:42;39.20;46.10
24085;DHT22;12268;52.110;5.548;2023-07-20T12:48:08;37.60;45.60
24085;DHT22;12268;52.110;5.548;2023-07-20T12:50:34;36.10;48.00
24085;DHT22;12268;52.110;5.548;2023-07-20T12:52:59;35.30;54.00
24085;DHT22;12268;52.110;5.548;2023-07-20T12:55:25;35.80;54.40
24085;DHT22;12268;52.110;5.548;2023-07-20T12:57:50;36.00;51.00
24085;DHT22;12268;52.110;5.548;2023-07-20T13:00:16;36.80;52.80
24085;DHT22;12268;52.110;5.548;2023-07-20T13:02:42;36.10;50.60
24085;DHT22;12268;52.110;5.548;2023-07-20T13:05:09;34.70;51.40
24085;DHT22;12268;52.110;5.548;2023-07-20T13:07:36;33.80;52.20
24085;DHT22;12268;52.110;5.548;2023-07-20T13:10:03;32.30;54.50
24085;DHT22;12268;52.110;5.548;2023-07-20T13:12:30;31.40;54.60
24085;DHT22;12268;52.110;5.548;2023-07-20T13:14:56;30.90;58.30
24085;DHT22;12268;52.110;5.548;2023-07-20T13:17:23;30.30;58.70
24085;DHT22;12268;52.110;5.548;2023-07-20T13:19:48;29.90;57.50
24085;DHT22;12268;52.110;5.548;2023-07-20T13:22:14;29.50;58.50
24085;DHT22;12268;52.110;5.548;2023-07-20T13:24:40;29.20;60.30
24085;DHT22;12268;52.110;5.548;2023-07-20T13:27:06;29.10;65.40
24085;DHT22;12268;52.110;5.548;2023-07-20T13:29:31;29.00;65.10
24085;DHT22;12268;52.110;5.548;2023-07-20T13:31:58;28.80;64.80
24085;DHT22;12268;52.110;5.548;2023-07-20T13:34:25;28.70;62.50
24085;DHT22;12268;52.110;5.548;2023-07-20T13:36:51;28.70;64.40
24085;DHT22;12268;52.110;5.548;2023-07-20T13:39:17;28.60;64.50
24085;DHT22;12268;52.110;5.548;2023-07-20T13:41:42;28.50;67.10
24085;DHT22;12268;52.110;5.548;2023-07-20T13:44:08;28.20;67.20
24085;DHT22;12268;52.110;5.548;2023-07-20T13:46:33;27.60;64.60
24085;DHT22;12268;52.110;5.548;2023-07-20T13:48:59;27.70;65.00
24085;DHT22;12268;52.110;5.548;2023-07-20T13:51:25;27.90;64.20
24085;DHT22;12268;52.110;5.548;2023-07-20T13:53:51;28.40;66.90
24085;DHT22;12268;52.110;5.548;2023-07-20T13:56:17;28.90;71.40
24085;DHT22;12268;52.110;5.548;2023-07-20T13:58:42;29.50;64.80
24085;DHT22;12268;52.110;5.548;2023-07-20T14:01:08;29.60;59.90
24085;DHT22;12268;52.110;5.548;2023-07-20T14:03:33;29.70;65.10
24085;DHT22;12268;52.110;5.548;2023-07-20T14:05:59;29.70;70.00
24085;DHT22;12268;52.110;5.548;2023-07-20T14:08:24;30.10;69.40
24085;DHT22;12268;52.110;5.548;2023-07-20T14:10:50;30.50;65.20
24085;DHT22;12268;52.110;5.548;2023-07-20T14:13:16;30.80;63.90
24085;DHT22;12268;52.110;5.548;2023-07-20T14:15:41;30.20;66.20
24085;DHT22;12268;52.110;5.548;2023-07-20T14:18:07;30.10;66.10
24085;DHT22;12268;52.110;5.548;2023-07-20T14:20:32;30.00;66.00
24085;DHT22;12268;52.110;5.548;2023-07-20T14:22:58;29.90;63.20
24085;DHT22;12268;52.110;5.548;2023-07-20T14:25:24;29.90;68.50
24085;DHT22;12268;52.110;5.548;2023-07-20T14:27:50;30.10;68.20
24085;DHT22;12268;52.110;5.548;2023-07-20T14:30:15;30.00;66.90
24085;DHT22;12268;52.110;5.548;2023-07-20T14:32:41;30.00;67.30
24085;DHT22;12268;52.110;5.548;2023-07-20T14:35:07;30.00;66.30
24085;DHT22;12268;52.110;5.548;2023-07-20T14:37:34;29.70;67.90
24085;DHT22;12268;52.110;5.548;2023-07-20T14:39:59;29.40;68.90
24085;DHT22;12268;52.110;5.548;2023-07-20T14:42:25;29.20;68.80
24085;DHT22;12268;52.110;5.548;2023-07-20T14:44:51;29.10;71.90
24085;DHT22;12268;52.110;5.548;2023-07-20T14:47:16;28.90;69.20
24085;DHT22;12268;52.110;5.548;2023-07-20T14:49:42;29.30;73.10
24085;DHT22;12268;52.110;5.548;2023-07-20T14:52:07;28.90;70.70
24085;DHT22;12268;52.110;5.548;2023-07-20T14:54:33;28.50;66.00
24085;DHT22;12268;52.110;5.548;2023-07-20T14:56:58;29.00;68.60
24085;DHT22;12268;52.110;5.548;2023-07-20T14:59:24;28.90;72.10
24085;DHT22;12268;52.110;5.548;2023-07-20T15:01:50;28.60;69.00
24085;DHT22;12268;52.110;5.548;2023-07-20T15:04:16;28.90;72.50
24085;DHT22;12268;52.110;5.548;2023-07-20T15:06:42;28.80;69.20
24085;DHT22;12268;52.110;5.548;2023-07-20T15:09:07;28.30;70.40
24085;DHT22;12268;52.110;5.548;2023-07-20T15:11:35;27.60;69.60
24085;DHT22;12268;52.110;5.548;2023-07-20T15:14:01;27.00;70.90
24085;DHT22;12268;52.110;5.548;2023-07-20T15:16:26;26.70;75.00
24085;DHT22;12268;52.110;5.548;2023-07-20T15:18:52;26.90;77.10
24085;DHT22;12268;52.110;5.548;2023-07-20T15:21:18;27.00;73.80
24085;DHT22;12268;52.110;5.548;2023-07-20T15:23:43;27.00;74.40
24085;DHT22;12268;52.110;5.548;2023-07-20T15:26:10;27.20;74.20
24085;DHT22;12268;52.110;5.548;2023-07-20T15:28:37;27.20;75.40
24085;DHT22;12268;52.110;5.548;2023-07-20T15:31:03;26.70;75.00
24085;DHT22;12268;52.110;5.548;2023-07-20T15:33:30;26.70;73.60
24085;DHT22;12268;52.110;5.548;2023-07-20T15:35:56;26.60;80.40
24085;DHT22;12268;52.110;5.548;2023-07-20T15:38:22;26.70;82.10
24085;DHT22;12268;52.110;5.548;2023-07-20T15:40:47;26.80;80.50
24085;DHT22;12268;52.110;5.548;2023-07-20T15:43:14;26.80;79.50
24085;DHT22;12268;52.110;5.548;2023-07-20T15:45:40;26.80;81.50
24085;DHT22;12268;52.110;5.548;2023-07-20T15:48:05;27.00;78.50
24085;DHT22;12268;52.110;5.548;2023-07-20T15:50:31;27.00;80.00
24085;DHT22;12268;52.110;5.548;2023-07-20T15:52:56;27.00;80.50
24085;DHT22;12268;52.110;5.548;2023-07-20T15:55:22;26.90;80.00
24085;DHT22;12268;52.110;5.548;2023-07-20T15:57:48;26.70;80.70
24085;DHT22;12268;52.110;5.548;2023-07-20T16:00:14;26.60;82.00
24085;DHT22;12268;52.110;5.548;2023-07-20T16:02:39;26.50;80.30